createdAt,value
2023-01-09T00:01:46.743Z,97463.64
2023-01-09T00:04:14.953Z,97460.73
2023-01-09T00:06:45.340Z,97471.84
2023-01-09T00:09:13.248Z,97473.14
2023-01-09T00:11:41.186Z,97465.73
2023-01-09T00:14:11.055Z,97460.70
2023-01-09T00:16:39.050Z,97460.70
2023-01-09T00:19:07.202Z,97466.55
2023-01-09T00:21:36.715Z,97460.45
2023-01-09T00:24:06.099Z,97457.84
2023-01-09T00:26:34.165Z,97462.36
2023-01-09T00:29:02.767Z,97463.97
2023-01-09T00:31:30.817Z,97457.38
2023-01-09T00:34:05.581Z,97458.69
2023-01-09T00:36:33.677Z,97455.80
2023-01-09T00:39:01.754Z,97460.04
2023-01-09T00:41:34.894Z,97456.60
2023-01-09T00:44:25.865Z,97462.69
2023-01-09T00:46:59.029Z,97464.80
2023-01-09T00:49:30.692Z,97460.55
2023-01-09T00:51:58.985Z,97454.44
2023-01-09T00:54:29.586Z,97459.47
2023-01-09T00:56:58.849Z,97458.39
2023-01-09T00:59:27.613Z,97454.66
2023-01-09T01:01:56.098Z,97452.28
2023-01-09T01:04:38.101Z,97455.46
2023-01-09T01:07:25.070Z,97452.80
2023-01-09T01:09:52.968Z,97452.77
2023-01-09T01:12:21.029Z,97447.48
2023-01-09T01:14:48.831Z,97444.29
2023-01-09T01:17:16.859Z,97442.14
2023-01-09T01:19:45.098Z,97446.63
2023-01-09T01:22:13.031Z,97440.80
2023-01-09T01:24:41.619Z,97444.27
2023-01-09T01:27:09.872Z,97440.56
2023-01-09T01:29:37.713Z,97431.57
2023-01-09T01:32:05.785Z,97423.40
2023-01-09T01:34:33.895Z,97426.84
2023-01-09T01:37:01.847Z,97422.59
2023-01-09T01:39:29.857Z,97416.25
2023-01-09T01:41:58.046Z,97414.42
2023-01-09T01:45:00.600Z,97402.52
2023-01-09T01:47:36.819Z,97398.55
2023-01-09T01:50:24.913Z,97392.73
2023-01-09T01:53:01.174Z,97393.27
2023-01-09T01:55:29.275Z,97382.16
2023-01-09T01:58:01.263Z,97376.34
2023-01-09T02:00:39.017Z,97367.32
2023-01-09T02:03:07.624Z,97364.67
2023-01-09T02:05:38.046Z,97353.30
2023-01-09T02:08:08.095Z,97357.27
2023-01-09T02:10:37.925Z,97359.13
2023-01-09T02:13:08.084Z,97360.98
2023-01-09T02:15:50.735Z,97340.09
2023-01-09T02:18:38.942Z,97357.28
2023-01-09T02:21:24.333Z,97359.66
2023-01-09T02:24:36.014Z,97362.03
2023-01-09T02:27:42.723Z,97357.82
2023-01-09T02:30:27.552Z,97354.92
2023-01-09T02:33:09.382Z,97345.92
2023-01-09T02:35:51.281Z,97341.69
2023-01-09T02:38:53.002Z,97339.04
2023-01-09T02:41:46.466Z,97335.88
2023-01-09T02:44:24.644Z,97329.22
2023-01-09T02:47:20.492Z,97323.94
2023-01-09T02:50:00.035Z,97321.81
2023-01-09T02:52:44.494Z,97319.16
2023-01-09T02:55:29.831Z,97321.53
2023-01-09T02:58:10.584Z,97326.80
2023-01-09T03:01:18.619Z,97316.75
2023-01-09T03:04:16.387Z,97311.72
2023-01-09T03:07:10.389Z,97303.53
2023-01-09T03:09:40.980Z,97306.16
2023-01-09T03:12:20.209Z,97307.25
2023-01-09T03:14:51.824Z,97303.80
2023-01-09T03:17:27.811Z,97303.56
2023-01-09T03:19:57.619Z,97300.41
2023-01-09T03:22:25.704Z,97300.15
2023-01-09T03:24:53.849Z,97297.23
2023-01-09T03:27:22.333Z,97292.49
2023-01-09T03:29:52.179Z,97293.83
2023-01-09T03:32:23.608Z,97296.47
2023-01-09T03:34:51.742Z,97287.22
2023-01-09T03:37:19.697Z,97290.95
2023-01-09T03:39:47.757Z,97289.90
2023-01-09T03:42:15.527Z,97284.08
2023-01-09T03:44:43.516Z,97288.85
2023-01-09T03:47:11.433Z,97296.27
2023-01-09T03:49:39.368Z,97282.23
2023-01-09T03:52:07.249Z,97283.03
2023-01-09T03:54:35.121Z,97286.48
2023-01-09T03:57:03.270Z,97274.33
2023-01-09T03:59:31.277Z,97277.25
2023-01-09T04:02:01.007Z,97274.33
2023-01-09T04:04:29.167Z,97264.55
2023-01-09T04:06:57.336Z,97269.85
2023-01-09T04:09:25.238Z,97264.28
2023-01-09T04:11:53.201Z,97269.31
2023-01-09T04:14:21.454Z,97259.27
2023-01-09T04:16:49.401Z,97259.53
2023-01-09T04:19:17.336Z,97259.00
2023-01-09T04:21:45.464Z,97260.34
2023-01-09T04:24:13.571Z,97259.27
2023-01-09T04:26:44.325Z,97264.30
2023-01-09T04:29:12.316Z,97263.25
2023-01-09T04:31:40.584Z,97261.40
2023-01-09T04:34:08.910Z,97257.69
2023-01-09T04:36:39.197Z,97252.39
2023-01-09T04:39:12.367Z,97256.11
2023-01-09T04:41:50.713Z,97250.00
2023-01-09T04:44:21.994Z,97255.31
2023-01-09T04:46:50.313Z,97257.17
2023-01-09T04:49:22.180Z,97254.26
2023-01-09T04:51:50.469Z,97253.72
2023-01-09T04:54:22.862Z,97256.91
2023-01-09T04:56:51.420Z,97255.04
2023-01-09T04:59:19.693Z,97251.84
2023-01-09T05:01:47.781Z,97253.70
2023-01-09T05:08:35.436Z,97253.17
2023-01-09T05:11:04.135Z,97250.81
2023-01-09T05:13:36.663Z,97245.23
2023-01-09T05:16:09.139Z,97243.92
2023-01-09T05:18:46.745Z,97225.91
2023-01-09T05:21:21.017Z,97247.09
2023-01-09T05:23:49.726Z,97244.72
2023-01-09T05:26:26.726Z,97243.66
2023-01-09T05:28:56.542Z,97237.04
2023-01-09T05:31:29.808Z,97235.47
2023-01-09T05:33:59.472Z,97234.64
2023-01-09T05:36:27.863Z,97236.50
2023-01-09T05:38:57.336Z,97230.41
2023-01-09T05:41:25.898Z,97227.27
2023-01-09T05:43:53.866Z,97228.32
2023-01-09T05:46:22.179Z,97221.69
2023-01-09T05:48:49.853Z,97221.69
2023-01-09T05:51:17.991Z,97223.79
2023-01-09T05:53:46.011Z,97214.53
2023-01-09T05:56:14.068Z,97221.67
2023-01-09T05:58:41.967Z,97214.78
2023-01-09T06:01:09.935Z,97210.30
2023-01-09T06:03:37.796Z,97214.00
2023-01-09T06:06:06.289Z,97219.27
2023-01-09T06:08:34.171Z,97219.28
2023-01-09T06:11:01.990Z,97220.59
2023-01-09T06:13:29.499Z,97211.58
2023-01-09T06:15:57.318Z,97206.81
2023-01-09T06:18:25.340Z,97206.30
2023-01-09T06:20:53.135Z,97202.84
2023-01-09T06:23:20.579Z,97204.98
2023-01-09T06:25:48.676Z,97208.67
2023-01-09T06:28:16.334Z,97205.25
2023-01-09T06:30:44.100Z,97201.81
2023-01-09T06:33:11.767Z,97203.39
2023-01-09T06:35:39.633Z,97204.98
2023-01-09T06:38:07.560Z,97208.45
2023-01-09T06:40:35.540Z,97210.81
2023-01-09T06:43:03.384Z,97216.12
2023-01-09T06:45:31.368Z,97219.28
2023-01-09T06:47:59.432Z,97230.67
2023-01-09T06:50:28.459Z,97222.20
2023-01-09T06:52:56.480Z,97218.77
2023-01-09T06:55:25.868Z,97223.80
2023-01-09T06:57:54.206Z,97226.97
2023-01-09T07:00:22.575Z,97221.42
2023-01-09T07:02:50.612Z,97217.17
2023-01-09T07:05:18.551Z,97217.44
2023-01-09T07:07:46.325Z,97213.47
2023-01-09T07:10:15.222Z,97209.73
2023-01-09T07:12:43.176Z,97217.42
2023-01-09T07:15:11.389Z,97214.98
2023-01-09T07:17:39.282Z,97221.83
2023-01-09T07:20:08.700Z,97224.92
2023-01-09T07:22:36.372Z,97225.08
2023-01-09T07:25:04.954Z,97216.68
2023-01-09T07:27:32.655Z,97201.64
2023-01-09T07:30:00.354Z,97207.52
2023-01-09T07:32:28.331Z,97210.70
2023-01-09T07:34:55.967Z,97211.28
2023-01-09T07:37:23.642Z,97206.01
2023-01-09T07:39:51.612Z,97212.84
2023-01-09T07:42:19.557Z,97208.21
2023-01-09T07:44:47.147Z,97211.61
2023-01-09T07:47:15.511Z,97207.83
2023-01-09T07:49:43.449Z,97200.30
2023-01-09T07:52:11.184Z,97193.30
2023-01-09T07:54:38.864Z,97199.09
2023-01-09T07:57:06.428Z,97195.34
2023-01-09T07:59:33.960Z,97195.07
2023-01-09T08:02:03.944Z,97193.22
2023-01-09T08:04:31.661Z,97192.00
2023-01-09T08:06:59.499Z,97191.21
2023-01-09T08:09:27.436Z,97190.42
2023-01-09T08:11:57.668Z,97175.27
2023-01-09T08:14:25.558Z,97176.33
2023-01-09T08:16:53.708Z,97177.91
2023-01-09T08:19:21.616Z,97170.95
2023-01-09T08:21:49.878Z,97168.18
2023-01-09T08:24:17.824Z,97169.43
2023-01-09T08:26:45.863Z,97161.81
2023-01-09T08:29:13.947Z,97166.94
2023-01-09T08:31:41.913Z,97160.06
2023-01-09T08:34:09.825Z,97160.11
2023-01-09T08:36:37.853Z,97163.81
2023-01-09T08:39:05.765Z,97161.08
2023-01-09T08:41:51.499Z,97162.31
2023-01-09T08:44:37.824Z,97160.34
2023-01-09T08:47:05.835Z,97150.33
2023-01-09T08:49:36.687Z,97151.55
2023-01-09T08:52:06.403Z,97153.86
2023-01-09T08:54:36.686Z,97151.51
2023-01-09T08:57:04.799Z,97149.54
2023-01-09T08:59:34.031Z,97146.44
2023-01-09T09:02:01.760Z,97144.42
2023-01-09T09:04:29.663Z,97141.36
2023-01-09T09:06:57.351Z,97139.85
2023-01-09T09:09:25.317Z,97136.65
2023-01-09T09:11:54.934Z,97135.83
2023-01-09T09:14:41.404Z,97127.02
2023-01-09T09:17:09.141Z,97118.16
2023-01-09T09:19:38.741Z,97109.76
2023-01-09T09:22:06.568Z,97100.70
2023-01-09T09:24:34.281Z,97098.80
2023-01-09T09:27:02.147Z,97091.01
2023-01-09T09:29:30.032Z,97092.54
2023-01-09T09:31:59.955Z,97088.75
2023-01-09T09:34:27.332Z,97095.56
2023-01-09T09:36:55.150Z,97087.81
2023-01-09T09:39:22.898Z,97093.43
2023-01-09T09:42:26.893Z,97088.09
2023-01-09T09:45:19.872Z,97093.47
2023-01-09T09:48:05.484Z,97089.92
2023-01-09T09:51:04.165Z,97079.52
2023-01-09T09:53:40.125Z,97082.11
2023-01-09T09:56:12.253Z,97079.09
2023-01-09T09:58:48.386Z,97072.55
2023-01-09T10:01:23.882Z,97063.05
2023-01-09T10:03:56.611Z,97061.55
2023-01-09T10:06:32.221Z,97048.92
2023-01-09T10:09:45.535Z,97052.53
2023-01-09T10:12:33.938Z,97051.19
2023-01-09T10:15:17.572Z,97043.48
2023-01-09T10:18:07.725Z,97042.22
2023-01-09T10:20:55.110Z,97042.70
2023-01-09T10:23:57.921Z,97041.16
2023-01-09T10:26:43.288Z,97030.59
2023-01-09T10:29:24.623Z,97014.98
2023-01-09T10:32:24.920Z,97023.30
2023-01-09T10:35:06.872Z,97027.02
2023-01-09T10:37:39.032Z,97015.99
2023-01-09T10:40:18.193Z,97021.33
2023-01-09T10:42:59.987Z,97006.88
2023-01-09T10:45:53.934Z,97004.56
2023-01-09T10:48:34.594Z,97001.41
2023-01-09T10:51:07.461Z,97000.84
2023-01-09T10:53:39.525Z,96984.47
2023-01-09T10:56:18.807Z,96990.68
2023-01-09T10:58:47.170Z,96989.84
2023-01-09T11:01:15.026Z,96985.31
2023-01-09T11:03:43.128Z,96978.80
2023-01-09T11:06:25.649Z,96979.52
2023-01-09T11:08:57.104Z,96981.91
2023-01-09T11:11:35.882Z,96976.70
2023-01-09T11:14:30.133Z,96970.44
2023-01-09T11:17:01.881Z,96972.59
2023-01-09T11:19:32.839Z,96961.95
2023-01-09T11:22:11.416Z,96952.80
2023-01-09T11:24:39.131Z,96951.77
2023-01-09T11:27:18.920Z,96948.66
2023-01-09T11:30:08.586Z,96946.63
2023-01-09T11:32:36.806Z,96939.00
2023-01-09T11:35:07.900Z,96935.97
2023-01-09T11:37:38.883Z,96925.97
2023-01-09T11:40:12.235Z,96923.94
2023-01-09T11:42:52.089Z,96910.30
2023-01-09T11:45:25.458Z,96909.30
2023-01-09T11:47:53.583Z,96912.98
2023-01-09T11:50:25.875Z,96911.64
2023-01-09T11:53:13.314Z,96907.48
2023-01-09T11:55:43.332Z,96907.34
2023-01-09T11:58:21.470Z,96906.53
2023-01-09T12:01:13.232Z,96909.64
2023-01-09T12:04:11.176Z,96909.50
2023-01-09T12:07:14.432Z,96904.78
2023-01-09T12:10:07.542Z,96905.00
2023-01-09T12:13:01.493Z,96902.70
2023-01-09T12:16:01.974Z,96897.00
2023-01-09T12:18:48.251Z,96888.52
2023-01-09T12:21:43.083Z,96885.92
2023-01-09T12:24:53.184Z,96895.30
2023-01-09T12:27:38.054Z,96891.06
2023-01-09T12:30:37.924Z,96881.54
2023-01-09T12:33:34.983Z,96872.80
2023-01-09T12:36:26.631Z,96866.74
2023-01-09T12:39:08.781Z,96869.29
2023-01-09T12:41:57.593Z,96871.50
2023-01-09T12:44:36.870Z,96866.00
2023-01-09T12:47:30.696Z,96859.50
2023-01-09T12:50:16.147Z,96863.39
2023-01-09T12:53:07.832Z,96856.77
2023-01-09T12:55:46.816Z,96851.36
2023-01-09T12:58:39.807Z,96850.88
2023-01-09T13:01:18.631Z,96851.61
2023-01-09T13:04:11.611Z,96852.81
2023-01-09T13:06:44.657Z,96848.44
2023-01-09T13:09:36.279Z,96848.86
2023-01-09T13:12:12.529Z,96842.23
2023-01-09T13:15:09.828Z,96842.97
2023-01-09T13:17:51.286Z,96840.78
2023-01-09T13:20:28.055Z,96843.97
2023-01-09T13:22:56.717Z,96839.58
2023-01-09T13:25:42.909Z,96843.54
2023-01-09T13:28:33.936Z,96843.95
2023-01-09T13:31:35.998Z,96843.25
2023-01-09T13:34:17.709Z,96848.09
2023-01-09T13:36:43.360Z,96829.92
2023-01-09T13:39:22.322Z,96839.81
2023-01-09T13:42:19.078Z,96841.86
2023-01-09T13:44:50.210Z,96843.13
2023-01-09T13:47:28.091Z,96842.75
2023-01-09T13:50:13.486Z,96839.70
2023-01-09T13:52:44.879Z,96836.63
2023-01-09T13:55:18.039Z,96833.34
2023-01-09T13:58:11.223Z,96834.94
2023-01-09T14:00:45.409Z,96842.10
2023-01-09T14:03:25.955Z,96839.13
2023-01-09T14:06:02.518Z,96844.31
2023-01-09T14:08:32.868Z,96842.11
2023-01-09T14:11:05.380Z,96841.80
2023-01-09T14:13:40.348Z,96833.36
2023-01-09T14:16:23.045Z,96826.52
2023-01-09T14:19:07.074Z,96818.67
2023-01-09T14:21:52.355Z,96813.39
2023-01-09T14:24:28.382Z,96815.28
2023-01-09T14:27:00.140Z,96817.25
2023-01-09T14:29:43.700Z,96816.86
2023-01-09T14:32:33.615Z,96813.48
2023-01-09T14:35:21.548Z,96804.36
2023-01-09T14:38:03.718Z,96802.15
2023-01-09T14:40:33.215Z,96801.50
2023-01-09T14:43:06.699Z,96797.95
2023-01-09T14:45:39.234Z,96799.91
2023-01-09T14:48:11.324Z,96798.96
2023-01-09T14:50:54.030Z,96794.80
2023-01-09T14:53:32.241Z,96798.90
2023-01-09T14:56:06.827Z,96793.06
2023-01-09T14:58:37.495Z,96792.91
2023-01-09T15:01:18.195Z,96803.91
2023-01-09T15:03:59.197Z,96789.05
2023-01-09T15:06:37.558Z,96793.75
2023-01-09T15:09:31.028Z,96801.04
2023-01-09T15:12:06.512Z,96798.20
2023-01-09T15:14:39.423Z,96797.00
2023-01-09T15:17:28.441Z,96795.23
2023-01-09T15:19:58.645Z,96792.66
2023-01-09T15:22:40.357Z,96782.09
2023-01-09T15:25:38.765Z,96786.42
2023-01-09T15:28:27.898Z,96783.87
2023-01-09T15:31:06.849Z,96779.25
2023-01-09T15:33:38.627Z,96767.36
2023-01-09T15:36:11.895Z,96763.25
2023-01-09T15:38:42.694Z,96766.06
2023-01-09T15:41:20.096Z,96766.51
2023-01-09T15:43:47.957Z,96762.94
2023-01-09T15:46:16.069Z,96761.50
2023-01-09T15:48:43.973Z,96760.08
2023-01-09T15:51:17.871Z,96758.62
2023-01-09T15:53:49.810Z,96754.73
2023-01-09T15:56:32.717Z,96758.05
2023-01-09T15:59:04.042Z,96755.48
2023-01-09T16:01:34.318Z,96764.97
2023-01-09T16:04:12.701Z,96760.23
2023-01-09T16:06:51.896Z,96762.73
2023-01-09T16:09:30.911Z,96751.62
2023-01-09T16:12:03.001Z,96743.53
2023-01-09T16:14:37.830Z,96745.28
2023-01-09T16:17:11.184Z,96752.38
2023-01-09T18:28:51.320Z,96703.75
2023-01-09T18:31:23.888Z,96701.88
2023-01-09T18:33:54.321Z,96703.20
2023-01-09T18:36:29.399Z,96705.87
2023-01-09T18:38:59.927Z,96699.77
2023-01-09T18:41:28.858Z,96693.66
2023-01-09T18:43:59.355Z,96686.77
2023-01-09T18:46:29.426Z,96685.68
2023-01-09T18:49:00.878Z,96685.13
2023-01-09T18:51:30.103Z,96688.06
2023-01-09T18:53:59.186Z,96687.25
2023-01-09T18:56:27.183Z,96695.53
2023-01-09T18:58:59.179Z,96691.23
2023-01-09T19:01:28.886Z,96693.61
2023-01-09T19:04:00.065Z,96695.49
2023-01-09T19:06:29.817Z,96700.77
2023-01-09T19:09:01.291Z,96699.44
2023-01-09T19:11:30.960Z,96698.11
2023-01-09T19:13:58.931Z,96686.92
2023-01-09T19:16:26.995Z,96681.05
2023-01-09T19:18:54.907Z,96677.84
2023-01-09T19:21:25.100Z,96674.40
2023-01-09T19:23:52.857Z,96669.86
2023-01-09T19:26:24.365Z,96674.09
2023-01-09T19:28:56.869Z,96673.27
2023-01-09T19:31:27.816Z,96663.17
2023-01-09T19:33:58.167Z,96662.39
2023-01-09T19:36:27.796Z,96659.72
2023-01-09T19:39:00.487Z,96656.25
2023-01-09T19:41:29.148Z,96657.66
2023-01-09T19:43:58.949Z,96655.28
2023-01-09T19:46:26.841Z,96660.91
2023-01-09T19:48:58.640Z,96661.73
2023-01-09T19:51:28.628Z,96655.40
2023-01-09T19:56:33.568Z,96651.62
2023-01-09T19:59:04.587Z,96643.73
2023-01-09T20:01:37.151Z,96654.17
2023-01-09T20:04:14.579Z,96656.09
2023-01-09T20:06:48.249Z,96649.80
2023-01-09T20:09:20.797Z,96653.31
2023-01-09T20:11:52.179Z,96651.48
2023-01-09T20:14:23.226Z,96649.13
2023-01-09T20:17:00.400Z,96651.00
2023-01-09T20:19:39.300Z,96648.58
2023-01-09T20:22:13.763Z,96653.35
2023-01-09T20:24:43.594Z,96653.31
2023-01-09T20:27:16.173Z,96660.70
2023-01-09T20:29:44.615Z,96659.56
2023-01-09T20:32:16.683Z,96661.09
2023-01-09T20:34:52.106Z,96646.94
2023-01-09T20:37:39.695Z,96657.77
2023-01-09T20:48:27.615Z,96643.12
2023-01-09T20:51:16.115Z,96643.07
2023-01-09T20:57:22.186Z,96642.16
2023-01-09T20:59:59.150Z,96639.69
2023-01-09T21:02:28.893Z,96638.55
2023-01-09T21:04:57.803Z,96635.84
2023-01-09T21:07:30.006Z,96641.35
2023-01-09T21:09:58.196Z,96634.66
2023-01-09T21:12:35.338Z,96637.23
2023-01-09T21:15:11.359Z,96638.75
2023-01-09T21:17:41.783Z,96638.42
2023-01-09T21:20:14.469Z,96637.51
2023-01-09T21:22:46.613Z,96629.75
2023-01-09T21:25:17.174Z,96631.58
2023-01-09T21:27:50.708Z,96617.18
2023-01-09T21:30:19.588Z,96618.22
2023-01-09T21:32:47.732Z,96616.81
2023-01-09T21:35:16.127Z,96612.82
2023-01-09T21:37:46.304Z,96607.44
2023-01-09T21:40:17.645Z,96595.70
2023-01-09T21:43:03.856Z,96592.57
2023-01-09T21:45:51.686Z,96591.23
2023-01-09T21:48:23.590Z,96597.11
2023-01-09T21:50:51.943Z,96594.19
2023-01-09T21:53:24.881Z,96593.63
2023-01-09T21:55:56.235Z,96592.02
2023-01-09T21:58:24.636Z,96594.13
2023-01-09T22:01:00.041Z,96590.38
2023-01-09T22:03:31.359Z,96593.30
2023-01-09T22:09:23.533Z,96583.34
2023-01-09T22:12:04.759Z,96586.73
2023-01-09T22:14:34.720Z,96586.69
2023-01-09T22:17:09.369Z,96577.86
2023-01-09T22:19:45.268Z,96576.77
2023-01-09T22:22:17.051Z,96571.67
2023-01-09T22:24:45.444Z,96565.73
2023-01-09T22:27:13.769Z,96557.69
2023-01-09T22:29:42.196Z,96560.59
2023-01-09T22:32:10.520Z,96555.44
2023-01-09T22:34:38.567Z,96560.39
2023-01-09T22:37:06.663Z,96566.44
2023-01-09T22:39:34.824Z,96563.72
2023-01-09T22:42:02.961Z,96555.12
2023-01-09T22:44:31.088Z,96548.92
2023-01-09T22:47:00.093Z,96542.20
2023-01-09T22:49:33.443Z,96542.44
2023-01-09T22:51:58.456Z,96513.78
2023-01-09T22:54:26.653Z,96531.26
2023-01-09T22:56:54.613Z,96531.26
2023-01-09T22:59:24.018Z,96527.55
2023-01-09T23:01:54.076Z,96524.95
2023-01-09T23:04:22.183Z,96533.26
2023-01-09T23:06:50.949Z,96520.32
2023-01-09T23:09:19.089Z,96525.47
2023-01-09T23:12:02.207Z,96530.31
2023-01-09T23:14:35.604Z,96533.20
2023-01-09T23:17:06.648Z,96531.41
2023-01-09T23:19:35.122Z,96517.42
2023-01-09T23:22:04.658Z,96515.38
2023-01-09T23:24:33.521Z,96524.00
2023-01-09T23:27:04.239Z,96521.62
2023-01-09T23:29:34.205Z,96528.59
2023-01-09T23:32:08.568Z,96525.39
2023-01-09T23:34:37.520Z,96506.28
2023-01-09T23:37:08.164Z,96525.39
2023-01-09T23:39:36.483Z,96514.73
2023-01-09T23:42:23.156Z,96509.64
2023-01-09T23:44:54.790Z,96502.98
2023-01-09T23:47:22.985Z,96492.34
2023-01-09T23:49:51.301Z,96506.69
2023-01-09T23:52:19.460Z,96502.15
2023-01-09T23:54:47.578Z,96495.41
2023-01-09T23:57:15.671Z,96489.55
2023-01-09T23:59:43.871Z,96489.23
